• Join FlightAware (Why Join?)
  • Login
  • US Flag 
09:48AM EDT


 

Airport Tracker/Info


-or-


 

Live Flight TrackerFlight Track Log ✈ CTL13 ✈ 24-Jun-2013 ✈ KMDW - KGRR

Flight Track Log - Related Links

Times and Time Zones

All times are in EDT time to prevent confusion due to time zone crossing. See the CTL13 flight status page for this flight to view local times or setup timezone preferences in your user account.

Time Position Orientation Groundspeed Altitude Reporting Facility
EDT Latitude Longitude Course Direction KTS MPH feet Rate Location/Type
10:55PM 41.7667 -87.7500 90° East 132 152 1,500  Level Chicago TRACON
10:56PM 41.7667 -87.6833 90° East 166 191 2,100 480 Climbing Chicago TRACON
10:57PM 41.7736 -87.6597 68° East 157 181 2,300 420 Climbing Chicago Center
10:58PM 41.7778 -87.5958 85° East 166 191 2,900 660 Climbing Chicago Center
10:59PM 41.7822 -87.5147 86° East 177 204 3,700 540 Climbing Chicago Center
11:00PM 41.7861 -87.4464 86° East 184 212 4,100 480 Climbing Chicago Center
11:01PM 41.7900 -87.3761 86° East 188 216 4,700 480 Climbing Chicago Center
11:02PM 41.7928 -87.3053 87° East 190 219 5,100 120 Climbing Chicago Center
11:03PM 41.7956 -87.2300 87° East 199 229 5,000  Descending Chicago Center
11:04PM 41.7969 -87.1536 89° East 204 235 5,100  Climbing Chicago Center
11:05PM 41.8008 -87.0772 86° East 206 237 5,100  Level Chicago Center
11:06PM 41.8133 -87.0081 76° East 200 230 5,100  Level Chicago Center
11:07PM 41.8583 -86.9503 44° Northeast 186 214 5,100 -60 Level Chicago Center
11:08PM 41.8978 -86.8981 45° Northeast 192 221 5,000  Descending Chicago Center
11:09PM 41.9322 -86.8497 46° Northeast 189 217 5,100  Climbing Chicago Center
11:10PM 41.9686 -86.8019 44° Northeast 186 214 5,100  Level Chicago Center
11:11PM 42.0028 -86.7517 48° Northeast 184 212 5,100 -60 Level Chicago Center
11:12PM 42.0408 -86.6972 47° Northeast 182 209 5,000  Descending Chicago Center
11:13PM 42.0753 -86.6478 47° Northeast 182 209 5,100  Climbing Chicago Center
11:14PM 42.1117 -86.5975 46° Northeast 185 213 5,100  Level Chicago Center
11:15PM 42.1494 -86.5494 43° Northeast 187 215 5,100  Level Chicago Center
11:16PM 42.1856 -86.5006 45° Northeast 185 213 5,100  Level Chicago Center
11:17PM 42.2217 -86.4531 44° Northeast 182 209 5,100  Level Chicago Center
11:18PM 42.2578 -86.4039 45° Northeast 184 212 5,100  Level Chicago Center
11:19PM 42.2972 -86.3489 46° Northeast 180 207 5,100  Level Chicago Center
11:20PM 42.3319 -86.3033 44° Northeast 177 204 5,100  Level Chicago Center
11:21PM 42.3669 -86.2558 45° Northeast 178 205 5,100  Level Chicago Center
11:22PM 42.4006 -86.2089 46° Northeast 176 203 5,100  Level Chicago Center
11:23PM 42.4333 -86.1603 48° Northeast 175 201 5,100  Level Chicago Center
11:24PM 42.4667 -86.1125 47° Northeast 174 200 5,100  Level Chicago Center
11:25PM 42.5006 -86.0675 44° Northeast 174 200 5,100  Level Chicago Center
11:26PM 42.5408 -86.0136 45° Northeast 171 197 5,100  Level Chicago Center
11:27PM 42.5736 -85.9667 47° Northeast 171 197 5,100  Level Chicago Center
11:28PM 42.6050 -85.9225 46° Northeast 166 191 5,100 -60 Level Chicago Center
11:29PM 42.6375 -85.8778 45° Northeast 168 193 5,000 -240 Descending Chicago Center
11:30PM 42.6694 -85.8319 47° Northeast 167 192 4,700 -540 Descending Chicago Center
11:31PM 42.7039 -85.7800 48° Northeast 179 206 3,900 -720 Descending Chicago Center
11:33PM 42.7397 -85.7236 49° Northeast 192 221 3,300 -420 Descending Chicago Center
11:34PM 42.7575 -85.6519 71° East 209 241 3,100 -120 Descending Chicago Center
11:35PM 42.7778 -85.5731 71° East 190 219 3,100 -180 Level Chicago Center
11:36PM 42.7967 -85.5133 67° East 180 207 2,800 -840 Descending Chicago Center
11:37PM 42.8406 -85.5072 North 169 194 1,500 -900 Descending Chicago Center
11:38PM 42.8739 -85.5156 350° North 156 180 1,000 -540 Descending Chicago Center
11:40PM 42.8667 -85.5167 56° Northeast  Level FlightAware Approximate